Time;durP1;ratioP1;P1;durP2;ratioP2;P2;SDS_P1;SDS_P2;PMS_P1;PMS_P2;Temp;Humidity;BMP_temperature;BMP_pressure;BME280_temperature;BME280_humidity;BME280_pressure;Samples;Min_cycle;Max_cycle;Signal;HPM_P1;HPM_P2
2022/04/02 00:00:17;;;;;;;;;;;23.90;41.90;;;;;;677955;29;878;-79
2022/04/02 00:00:37;;;;;;;;;;;23.90;41.70;;;;;;677803;29;808;-79
2022/04/02 00:00:58;;;;;;;;;;;23.90;42.00;;;;;;677898;29;1303;-79
2022/04/02 00:01:19;;;;;;;;;;;23.90;41.70;;;;;;677984;29;801;-79
2022/04/02 00:01:39;;;;;;;;;;;23.90;41.50;;;;;;677767;29;812;-79
2022/04/02 00:02:00;;;;;;;;;;;23.90;41.80;;;;;;675025;29;837;-80
2022/04/02 00:02:21;;;;;;;;;;;23.90;41.60;;;;;;675194;29;879;-80
2022/04/02 00:02:41;;;;;;;;;;;23.90;41.60;;;;;;675085;29;867;-79
2022/04/02 00:03:02;;;;;;;;;;;23.90;42.10;;;;;;675127;29;812;-79
2022/04/02 00:03:23;;;;;;;;;;;23.90;41.50;;;;;;675068;29;946;-79
2022/04/02 00:03:43;;;;;;;;;;;23.90;41.90;;;;;;674956;29;919;-79
2022/04/02 00:04:04;;;;;;;;;;;23.90;41.80;;;;;;675080;29;1902;-79
2022/04/02 00:04:24;;;;;;;;;;;23.90;41.60;;;;;;675065;29;1339;-79
2022/04/02 00:04:45;;;;;;;;;;;23.90;41.50;;;;;;675057;29;955;-79
2022/04/02 00:05:05;;;;;;;;;;;23.90;41.60;;;;;;675031;29;880;-80
2022/04/02 00:05:27;;;;;;;;;;;23.90;41.40;;;;;;675522;29;784;-79
2022/04/02 00:05:48;;;;;;;;;;;23.90;41.70;;;;;;677703;29;816;-82
2022/04/02 00:06:08;;;;;;;;;;;23.90;41.70;;;;;;677655;29;922;-79
2022/04/02 00:06:29;;;;;;;;;;;23.90;41.70;;;;;;677691;29;1122;-80
2022/04/02 00:06:49;;;;;;;;;;;23.90;41.40;;;;;;677670;29;931;-79
2022/04/02 00:07:10;;;;;;;;;;;23.90;41.30;;;;;;677642;29;796;-79
2022/04/02 00:07:30;;;;;;;;;;;24.00;41.60;;;;;;677722;29;797;-79
2022/04/02 00:07:52;;;;;;;;;;;24.00;41.60;;;;;;677842;29;792;-79
2022/04/02 00:08:13;;;;;;;;;;;23.90;41.20;;;;;;677777;29;907;-79
2022/04/02 00:08:34;;;;;;;;;;;24.00;42.40;;;;;;677846;29;839;-79
2022/04/02 00:08:56;;;;;;;;;;;24.00;41.90;;;;;;678051;29;847;-80
2022/04/02 00:09:16;;;;;;;;;;;24.00;41.50;;;;;;677881;29;1082;-80
2022/04/02 00:09:38;;;;;;;;;;;24.00;41.40;;;;;;677885;29;931;-80
2022/04/02 00:10:00;;;;;;;;;;;24.00;41.30;;;;;;677970;29;847;-79
2022/04/02 00:10:20;;;;;;;;;;;24.00;41.30;;;;;;676876;29;938;-79
2022/04/02 00:10:41;;;;;;;;;;;24.00;41.40;;;;;;677344;29;1290;-79
2022/04/02 00:11:02;;;;;;;;;;;24.00;41.40;;;;;;675024;29;1409;-79
2022/04/02 00:11:22;;;;;;;;;;;24.00;41.30;;;;;;675170;29;879;-81
2022/04/02 00:11:45;;;;;;;;;;;24.00;41.30;;;;;;675082;29;879;-80
2022/04/02 00:12:08;;;;;;;;;;;24.00;41.20;;;;;;675014;29;1330;-79
2022/04/02 00:12:29;;;;;;;;;;;24.00;41.20;;;;;;675274;29;823;-79
2022/04/02 00:12:50;;;;;;;;;;;24.00;41.10;;;;;;676020;29;877;-79
2022/04/02 00:13:11;;;;;;;;;;;24.00;41.10;;;;;;677719;29;851;-79
2022/04/02 00:13:32;;;;;;;;;;;24.00;41.20;;;;;;677676;29;915;-79
2022/04/02 00:13:53;;;;;;;;;;;24.00;41.10;;;;;;677642;29;1165;-83
2022/04/02 00:14:13;;;;;;;;;;;24.00;41.10;;;;;;677877;29;923;-82
2022/04/02 00:14:34;;;;;;;;;;;24.00;41.90;;;;;;677928;29;776;-79
2022/04/02 00:14:55;;;;;;;;;;;24.00;41.20;;;;;;677960;29;926;-80
2022/04/02 00:15:15;;;;;;;;;;;24.00;41.40;;;;;;677835;29;994;-80
2022/04/02 00:15:36;;;;;;;;;;;24.00;42.60;;;;;;677885;29;576;-79
2022/04/02 00:15:57;;;;;;;;;;;24.00;41.10;;;;;;677756;29;1172;-80
2022/04/02 00:16:17;;;;;;;;;;;24.00;41.00;;;;;;677773;29;840;-79
2022/04/02 00:16:38;;;;;;;;;;;24.00;41.10;;;;;;677696;29;950;-79
2022/04/02 00:16:59;;;;;;;;;;;24.00;41.10;;;;;;677754;29;867;-80
2022/04/02 00:17:20;;;;;;;;;;;24.00;41.00;;;;;;677662;29;867;-79
2022/04/02 00:17:40;;;;;;;;;;;24.00;41.50;;;;;;677720;29;855;-80
2022/04/02 00:18:01;;;;;;;;;;;24.00;41.20;;;;;;677829;29;907;-79
2022/04/02 00:18:22;;;;;;;;;;;24.00;41.10;;;;;;678040;29;870;-79
2022/04/02 00:18:43;;;;;;;;;;;24.00;41.20;;;;;;677764;29;828;-79
2022/04/02 00:19:03;;;;;;;;;;;23.70;41.30;;;;;;677996;29;875;-81
2022/04/02 00:19:24;;;;;;;;;;;24.00;41.20;;;;;;678001;29;895;-79
2022/04/02 00:19:45;;;;;;;;;;;24.00;41.50;;;;;;677699;29;804;-79
2022/04/02 00:20:06;;;;;;;;;;;24.00;41.20;;;;;;677931;29;887;-80
2022/04/02 00:20:26;;;;;;;;;;;24.00;41.50;;;;;;678044;29;816;-79
2022/04/02 00:20:47;;;;;;;;;;;24.00;41.50;;;;;;677897;29;821;-79
2022/04/02 00:21:08;;;;;;;;;;;24.00;42.40;;;;;;677892;29;907;-79
2022/04/02 00:21:29;;;;;;;;;;;24.00;41.00;;;;;;678086;29;827;-79
2022/04/02 00:21:49;;;;;;;;;;;24.00;41.60;;;;;;677897;29;832;-79
2022/04/02 00:22:10;;;;;;;;;;;24.00;41.10;;;;;;677841;29;776;-79
2022/04/02 00:22:31;;;;;;;;;;;24.00;41.20;;;;;;677893;29;820;-79
2022/04/02 00:23:39;;;;;;;;;;;24.00;41.00;;;;;;678055;29;658;-79
2022/04/02 00:24:00;;;;;;;;;;;24.00;41.00;;;;;;677872;29;1914;-79
2022/04/02 00:24:20;;;;;;;;;;;24.00;40.90;;;;;;678057;29;839;-79
2022/04/02 00:24:41;;;;;;;;;;;24.00;40.90;;;;;;677843;29;839;-79
2022/04/02 00:25:01;;;;;;;;;;;24.00;41.00;;;;;;677883;29;883;-81
2022/04/02 00:25:22;;;;;;;;;;;24.00;41.30;;;;;;677993;29;768;-79
2022/04/02 00:25:42;;;;;;;;;;;24.00;41.50;;;;;;677942;29;820;-79
2022/04/02 00:26:04;;;;;;;;;;;24.00;41.10;;;;;;677823;29;815;-80
2022/04/02 00:26:25;;;;;;;;;;;24.00;41.80;;;;;;677988;29;894;-80
2022/04/02 00:26:45;;;;;;;;;;;24.00;41.10;;;;;;677935;29;859;-79
2022/04/02 00:27:06;;;;;;;;;;;24.00;41.00;;;;;;677882;29;954;-79
2022/04/02 00:27:27;;;;;;;;;;;24.00;41.00;;;;;;674205;29;1408;-79
2022/04/02 00:27:48;;;;;;;;;;;24.00;41.00;;;;;;675109;29;815;-79
2022/04/02 00:28:09;;;;;;;;;;;24.00;41.00;;;;;;675075;29;791;-79
2022/04/02 00:28:29;;;;;;;;;;;24.00;41.10;;;;;;675262;29;867;-79
2022/04/02 00:28:50;;;;;;;;;;;24.00;41.10;;;;;;675164;29;835;-79
2022/04/02 00:29:11;;;;;;;;;;;24.00;42.30;;;;;;675458;29;816;-79
2022/04/02 00:29:34;;;;;;;;;;;24.00;41.00;;;;;;677801;29;959;-79
2022/04/02 00:29:54;;;;;;;;;;;24.00;41.30;;;;;;677995;29;863;-79
2022/04/02 00:30:16;;;;;;;;;;;24.00;40.90;;;;;;677831;29;921;-80
2022/04/02 00:30:36;;;;;;;;;;;24.00;40.90;;;;;;677875;29;860;-79
2022/04/02 00:30:57;;;;;;;;;;;24.00;40.90;;;;;;677979;29;859;-79
2022/04/02 00:31:18;;;;;;;;;;;24.00;40.90;;;;;;674423;29;1299;-79
2022/04/02 00:31:40;;;;;;;;;;;24.00;40.90;;;;;;675103;29;989;-79
2022/04/02 00:32:01;;;;;;;;;;;24.00;41.40;;;;;;675067;29;914;-79
2022/04/02 00:32:21;;;;;;;;;;;24.00;41.50;;;;;;675200;29;935;-80
2022/04/02 00:32:42;;;;;;;;;;;24.00;42.30;;;;;;675114;29;816;-79
2022/04/02 00:33:02;;;;;;;;;;;24.00;41.10;;;;;;675576;29;899;-79
2022/04/02 00:33:23;;;;;;;;;;;24.00;41.10;;;;;;677929;29;986;-79
2022/04/02 00:33:46;;;;;;;;;;;24.00;41.70;;;;;;677814;29;851;-78
2022/04/02 00:34:06;;;;;;;;;;;24.10;41.20;;;;;;677834;29;812;-79
2022/04/02 00:34:27;;;;;;;;;;;24.00;41.00;;;;;;677873;29;851;-80
2022/04/02 00:34:50;;;;;;;;;;;24.00;41.00;;;;;;677911;29;931;-79
2022/04/02 00:35:11;;;;;;;;;;;24.00;40.90;;;;;;677864;29;824;-79
2022/04/02 00:35:32;;;;;;;;;;;24.00;40.90;;;;;;677863;29;784;-79
2022/04/02 00:35:53;;;;;;;;;;;24.00;40.90;;;;;;677946;29;926;-79
2022/04/02 00:36:14;;;;;;;;;;;24.00;41.20;;;;;;677855;29;835;-79
2022/04/02 00:36:37;;;;;;;;;;;24.00;40.90;;;;;;677874;29;788;-79
2022/04/02 00:36:58;;;;;;;;;;;24.00;40.90;;;;;;677719;29;891;-79
2022/04/02 00:37:19;;;;;;;;;;;24.00;40.90;;;;;;677621;29;875;-79
2022/04/02 00:37:39;;;;;;;;;;;24.00;41.20;;;;;;677758;29;823;-78
2022/04/02 00:38:00;;;;;;;;;;;24.10;41.00;;;;;;677822;29;784;-79
2022/04/02 00:38:20;;;;;;;;;;;24.00;41.00;;;;;;677758;29;792;-78
2022/04/02 00:38:41;;;;;;;;;;;24.00;40.90;;;;;;677671;29;835;-77
2022/04/02 00:39:02;;;;;;;;;;;24.00;40.80;;;;;;677915;29;815;-79
2022/04/02 00:39:22;;;;;;;;;;;24.00;41.00;;;;;;677898;29;863;-79
2022/04/02 00:39:43;;;;;;;;;;;24.00;41.00;;;;;;677919;29;784;-79
2022/04/02 00:40:04;;;;;;;;;;;24.10;41.20;;;;;;677871;29;800;-79
2022/04/02 00:40:25;;;;;;;;;;;24.10;41.10;;;;;;678046;29;855;-79
2022/04/02 00:40:45;;;;;;;;;;;24.10;41.50;;;;;;677771;29;777;-80
2022/04/02 00:41:06;;;;;;;;;;;24.00;41.10;;;;;;677785;29;907;-79
2022/04/02 00:41:27;;;;;;;;;;;24.10;40.90;;;;;;678028;29;843;-80
2022/04/02 00:41:48;;;;;;;;;;;24.00;41.00;;;;;;678264;29;902;-80
2022/04/02 00:42:09;;;;;;;;;;;24.10;41.20;;;;;;678329;29;823;-80
2022/04/02 00:42:29;;;;;;;;;;;24.10;41.10;;;;;;678384;29;843;-80
2022/04/02 00:42:50;;;;;;;;;;;24.00;41.00;;;;;;678490;29;839;-79
2022/04/02 00:43:20;;;;;;;;;;;24.10;41.30;;;;;;678326;29;907;-81
2022/04/02 00:43:53;;;;;;;;;;;24.00;40.90;;;;;;678053;29;1483;-79
2022/04/02 00:44:14;;;;;;;;;;;24.00;40.90;;;;;;678124;29;1887;-80
2022/04/02 00:44:35;;;;;;;;;;;24.00;40.80;;;;;;678191;29;863;-80
2022/04/02 00:44:55;;;;;;;;;;;24.00;40.80;;;;;;678284;29;934;-80
2022/04/02 00:45:16;;;;;;;;;;;24.00;40.90;;;;;;678058;29;914;-80
2022/04/02 00:45:36;;;;;;;;;;;24.00;40.90;;;;;;678150;29;1217;-79
2022/04/02 00:45:59;;;;;;;;;;;24.00;40.80;;;;;;678291;29;918;-80
2022/04/02 00:46:19;;;;;;;;;;;24.00;40.90;;;;;;678121;29;854;-79
2022/04/02 00:46:42;;;;;;;;;;;24.00;41.00;;;;;;678174;29;800;-79
2022/04/02 00:47:02;;;;;;;;;;;24.00;40.80;;;;;;678111;29;820;-79
2022/04/02 00:47:23;;;;;;;;;;;24.00;40.80;;;;;;678291;29;914;-79
2022/04/02 00:47:43;;;;;;;;;;;21.20;39.20;;;;;;678378;29;875;-79
2022/04/02 00:48:04;;;;;;;;;;;24.00;40.90;;;;;;678417;29;840;-80
2022/04/02 00:48:27;;;;;;;;;;;24.00;41.50;;;;;;678419;29;815;-79
2022/04/02 00:48:49;;;;;;;;;;;24.00;41.10;;;;;;678205;29;832;-79
2022/04/02 00:49:11;;;;;;;;;;;24.00;41.30;;;;;;678240;29;805;-79
2022/04/02 00:49:32;;;;;;;;;;;24.00;40.80;;;;;;678296;29;866;-79
2022/04/02 00:49:53;;;;;;;;;;;24.00;40.80;;;;;;678395;29;848;-79
2022/04/02 00:50:14;;;;;;;;;;;24.00;40.90;;;;;;678329;29;776;-80
2022/04/02 00:50:34;;;;;;;;;;;24.00;41.00;;;;;;678321;29;859;-79
2022/04/02 00:50:56;;;;;;;;;;;24.00;40.90;;;;;;678420;29;947;-80
2022/04/02 00:51:18;;;;;;;;;;;24.00;40.80;;;;;;678295;29;792;-79
2022/04/02 00:51:42;;;;;;;;;;;24.00;41.00;;;;;;675404;29;1301;-79
2022/04/02 00:52:03;;;;;;;;;;;24.10;40.70;;;;;;675575;29;812;-79
2022/04/02 00:52:27;;;;;;;;;;;24.00;40.90;;;;;;675658;29;919;-79
2022/04/02 00:52:49;;;;;;;;;;;24.00;40.80;;;;;;675531;29;868;-80
2022/04/02 00:53:09;;;;;;;;;;;24.00;41.30;;;;;;675539;29;871;-79
2022/04/02 00:53:31;;;;;;;;;;;24.00;40.90;;;;;;677060;29;784;-80
2022/04/02 00:53:52;;;;;;;;;;;24.00;40.80;;;;;;678423;29;851;-79
2022/04/02 00:54:13;;;;;;;;;;;24.00;40.80;;;;;;678344;29;792;-79
2022/04/02 00:54:34;;;;;;;;;;;24.00;40.80;;;;;;678276;29;800;-79
2022/04/02 00:54:55;;;;;;;;;;;24.00;41.90;;;;;;678361;29;1306;-79
2022/04/02 00:55:15;;;;;;;;;;;24.00;40.80;;;;;;678357;29;800;-81
2022/04/02 00:55:36;;;;;;;;;;;24.00;40.90;;;;;;678273;29;780;-80
2022/04/02 00:55:57;;;;;;;;;;;24.00;40.90;;;;;;678141;29;825;-79
2022/04/02 00:56:18;;;;;;;;;;;24.10;41.00;;;;;;678170;29;923;-79
2022/04/02 00:56:41;;;;;;;;;;;24.00;40.90;;;;;;678066;29;816;-79
2022/04/02 00:57:01;;;;;;;;;;;24.00;40.90;;;;;;678183;29;808;-79
2022/04/02 00:57:24;;;;;;;;;;;24.10;41.10;;;;;;678197;29;847;-78
2022/04/02 00:57:45;;;;;;;;;;;24.00;41.00;;;;;;678212;29;808;-79
2022/04/02 00:58:06;;;;;;;;;;;24.00;40.90;;;;;;678343;29;784;-79
2022/04/02 00:58:27;;;;;;;;;;;24.00;40.80;;;;;;678436;29;823;-79
2022/04/02 00:58:47;;;;;;;;;;;24.00;40.90;;;;;;678375;29;911;-79
2022/04/02 00:59:08;;;;;;;;;;;24.00;40.90;;;;;;678311;29;808;-79
2022/04/02 00:59:30;;;;;;;;;;;24.10;40.90;;;;;;678427;29;784;-79
2022/04/02 00:59:50;;;;;;;;;;;24.10;40.90;;;;;;677939;29;1259;-79
2022/04/02 01:00:11;;;;;;;;;;;24.10;41.00;;;;;;678161;29;788;-79
2022/04/02 01:00:32;;;;;;;;;;;24.00;40.80;;;;;;678125;29;848;-79
2022/04/02 01:00:53;;;;;;;;;;;24.00;40.90;;;;;;678194;29;919;-79
2022/04/02 01:01:13;;;;;;;;;;;24.00;41.30;;;;;;678090;29;844;-79
2022/04/02 01:01:37;;;;;;;;;;;24.00;40.80;;;;;;678135;29;910;-78
2022/04/02 01:01:58;;;;;;;;;;;24.00;40.90;;;;;;678380;29;820;-79
2022/04/02 01:02:19;;;;;;;;;;;24.00;40.80;;;;;;678273;29;969;-79
2022/04/02 01:02:39;;;;;;;;;;;24.00;40.70;;;;;;678240;29;892;-79
2022/04/02 01:03:00;;;;;;;;;;;24.00;40.70;;;;;;678456;29;804;-79
2022/04/02 01:03:21;;;;;;;;;;;24.00;40.80;;;;;;678395;29;816;-79
2022/04/02 01:03:42;;;;;;;;;;;24.00;40.90;;;;;;678095;29;859;-79
2022/04/02 01:04:03;;;;;;;;;;;24.00;40.90;;;;;;678205;29;1966;-79
2022/04/02 01:04:23;;;;;;;;;;;24.00;41.00;;;;;;678410;29;880;-82
2022/04/02 01:04:44;;;;;;;;;;;24.00;40.90;;;;;;678222;29;812;-79
2022/04/02 01:05:04;;;;;;;;;;;24.10;41.50;;;;;;678271;29;895;-79
2022/04/02 01:05:25;;;;;;;;;;;24.00;40.90;;;;;;678428;29;947;-80
2022/04/02 01:05:47;;;;;;;;;;;24.00;40.80;;;;;;678230;29;868;-79
2022/04/02 01:06:10;;;;;;;;;;;24.00;40.60;;;;;;678300;29;883;-79
2022/04/02 01:06:31;;;;;;;;;;;24.00;40.70;;;;;;678245;29;796;-78
2022/04/02 01:06:52;;;;;;;;;;;24.00;40.80;;;;;;678470;29;832;-79
2022/04/02 01:07:15;;;;;;;;;;;24.00;40.60;;;;;;678345;29;851;-79
2022/04/02 01:07:35;;;;;;;;;;;24.00;40.80;;;;;;678308;29;788;-79
2022/04/02 01:07:56;;;;;;;;;;;24.00;40.90;;;;;;678364;29;804;-80
2022/04/02 01:08:17;;;;;;;;;;;24.00;40.80;;;;;;678393;29;836;-79
2022/04/02 01:08:38;;;;;;;;;;;24.00;40.80;;;;;;678247;29;800;-79
2022/04/02 01:09:00;;;;;;;;;;;24.00;40.70;;;;;;678345;29;891;-79
2022/04/02 01:09:21;;;;;;;;;;;24.00;40.60;;;;;;678397;29;800;-78
2022/04/02 01:09:41;;;;;;;;;;;24.00;40.90;;;;;;678223;29;1171;-79
2022/04/02 01:10:03;;;;;;;;;;;24.00;42.00;;;;;;678075;29;793;-80
2022/04/02 01:10:24;;;;;;;;;;;24.00;40.70;;;;;;675504;29;753;-80
2022/04/02 01:10:45;;;;;;;;;;;24.00;40.70;;;;;;675474;29;930;-80
2022/04/02 01:11:05;;;;;;;;;;;24.00;41.90;;;;;;678309;29;1218;-80
2022/04/02 01:11:39;;;;;;;;;;;24.00;40.70;;;;;;678199;29;768;-80
2022/04/02 01:12:00;;;;;;;;;;;24.00;40.60;;;;;;678723;29;807;-80
2022/04/02 01:12:24;;;;;;;;;;;24.00;40.80;;;;;;678471;29;974;-80
2022/04/02 01:12:45;;;;;;;;;;;24.00;40.60;;;;;;678249;29;1321;-80
2022/04/02 01:13:06;;;;;;;;;;;24.00;40.60;;;;;;678303;29;800;-82
2022/04/02 01:13:27;;;;;;;;;;;24.00;40.70;;;;;;678496;29;848;-81
2022/04/02 01:13:48;;;;;;;;;;;24.00;41.10;;;;;;678153;29;1372;-79
2022/04/02 01:14:10;;;;;;;;;;;24.00;40.60;;;;;;678275;29;784;-80
2022/04/02 01:14:30;;;;;;;;;;;24.00;40.80;;;;;;678092;29;839;-80
2022/04/02 01:14:51;;;;;;;;;;;24.00;40.80;;;;;;678429;29;792;-80
2022/04/02 01:15:12;;;;;;;;;;;24.00;40.60;;;;;;678327;29;954;-80
2022/04/02 01:15:32;;;;;;;;;;;24.00;40.70;;;;;;678238;29;832;-80
2022/04/02 01:15:53;;;;;;;;;;;24.10;40.80;;;;;;678355;29;931;-80
2022/04/02 01:16:13;;;;;;;;;;;24.00;40.70;;;;;;678344;29;910;-80
2022/04/02 01:16:34;;;;;;;;;;;24.00;40.80;;;;;;678262;29;804;-80
2022/04/02 01:16:55;;;;;;;;;;;24.10;40.60;;;;;;678507;29;788;-81
2022/04/02 01:17:15;;;;;;;;;;;24.10;40.60;;;;;;678279;29;895;-81
2022/04/02 01:17:40;;;;;;;;;;;22.00;39.90;;;;;;678362;29;809;-81
2022/04/02 01:18:00;;;;;;;;;;;24.00;40.90;;;;;;678285;29;812;-80
2022/04/02 01:18:21;;;;;;;;;;;24.00;41.00;;;;;;677652;29;1689;-81
2022/04/02 01:18:43;;;;;;;;;;;24.10;40.70;;;;;;678004;29;835;-80
2022/04/02 01:19:05;;;;;;;;;;;24.00;40.60;;;;;;678113;29;852;-80
2022/04/02 01:19:25;;;;;;;;;;;24.00;40.60;;;;;;678347;29;875;-81
2022/04/02 01:19:46;;;;;;;;;;;24.00;40.70;;;;;;677937;29;1225;-80
2022/04/02 01:20:08;;;;;;;;;;;24.00;41.30;;;;;;678245;29;788;-81
2022/04/02 01:20:29;;;;;;;;;;;24.10;40.70;;;;;;678431;29;961;-81
2022/04/02 01:20:50;;;;;;;;;;;24.10;40.70;;;;;;678087;29;832;-80
2022/04/02 01:21:11;;;;;;;;;;;24.00;40.70;;;;;;677979;29;1053;-80
2022/04/02 01:21:32;;;;;;;;;;;21.50;40.30;;;;;;675558;29;1594;-81
2022/04/02 01:21:53;;;;;;;;;;;24.00;40.90;;;;;;675562;29;1407;-80
2022/04/02 01:22:13;;;;;;;;;;;24.10;40.70;;;;;;675442;29;1240;-79
2022/04/02 01:22:34;;;;;;;;;;;24.10;40.60;;;;;;675593;29;816;-80
2022/04/02 01:22:54;;;;;;;;;;;24.00;40.70;;;;;;675610;29;821;-78
2022/04/02 01:23:15;;;;;;;;;;;24.00;40.50;;;;;;675592;29;912;-79
2022/04/02 01:23:36;;;;;;;;;;;24.00;40.50;;;;;;675504;29;820;-79
2022/04/02 01:23:57;;;;;;;;;;;25.30;41.30;;;;;;676048;29;923;-80
2022/04/02 01:24:17;;;;;;;;;;;24.00;40.60;;;;;;678359;29;1907;-79
2022/04/02 01:24:38;;;;;;;;;;;24.00;40.70;;;;;;678975;29;836;-80
2022/04/02 01:24:59;;;;;;;;;;;24.10;40.60;;;;;;678784;29;867;-79
2022/04/02 01:25:19;;;;;;;;;;;24.00;40.50;;;;;;678045;29;946;-79
2022/04/02 01:25:40;;;;;;;;;;;24.00;40.50;;;;;;678171;29;812;-79
2022/04/02 01:26:01;;;;;;;;;;;24.00;40.50;;;;;;675367;29;892;-79
2022/04/02 01:26:22;;;;;;;;;;;24.10;41.00;;;;;;675618;29;813;-79
2022/04/02 01:26:42;;;;;;;;;;;24.10;40.50;;;;;;675498;29;863;-79
2022/04/02 01:27:03;;;;;;;;;;;24.00;40.40;;;;;;673058;29;918;-80
2022/04/02 01:27:24;;;;;;;;;;;24.00;40.30;;;;;;673057;29;1022;-78
2022/04/02 01:27:45;;;;;;;;;;;24.10;40.30;;;;;;673334;29;884;-78
2022/04/02 01:28:06;;;;;;;;;;;24.10;40.40;;;;;;675500;29;876;-78
2022/04/02 01:28:33;;;;;;;;;;;24.10;40.50;;;;;;675609;29;843;-79
2022/04/02 01:28:55;;;;;;;;;;;24.10;40.50;;;;;;677000;29;813;-78
2022/04/02 01:29:15;;;;;;;;;;;24.10;40.50;;;;;;678411;29;993;-78
2022/04/02 01:29:36;;;;;;;;;;;24.10;41.60;;;;;;678149;29;960;-79
2022/04/02 01:29:56;;;;;;;;;;;24.10;40.40;;;;;;678371;29;872;-79
2022/04/02 01:30:17;;;;;;;;;;;24.10;40.40;;;;;;678329;29;891;-78
2022/04/02 01:30:38;;;;;;;;;;;24.10;40.50;;;;;;678024;29;867;-78
2022/04/02 01:30:58;;;;;;;;;;;24.10;40.30;;;;;;678178;29;781;-78
2022/04/02 01:31:19;;;;;;;;;;;24.10;40.40;;;;;;678238;29;887;-78
2022/04/02 01:31:44;;;;;;;;;;;24.10;40.30;;;;;;678148;29;867;-79
2022/04/02 01:32:04;;;;;;;;;;;24.00;40.20;;;;;;677944;29;1489;-78
2022/04/02 01:32:25;;;;;;;;;;;24.10;40.20;;;;;;677505;29;866;-79
2022/04/02 01:32:46;;;;;;;;;;;24.10;40.30;;;;;;677851;29;957;-78
2022/04/02 01:33:06;;;;;;;;;;;24.10;40.20;;;;;;678141;29;793;-81
2022/04/02 01:33:27;;;;;;;;;;;24.00;40.40;;;;;;678463;29;832;-80
2022/04/02 01:33:48;;;;;;;;;;;24.00;40.40;;;;;;678051;29;824;-78
2022/04/02 01:34:08;;;;;;;;;;;23.30;39.90;;;;;;678142;29;855;-78
2022/04/02 01:34:30;;;;;;;;;;;24.10;40.60;;;;;;678335;29;780;-78
2022/04/02 01:34:51;;;;;;;;;;;24.00;40.30;;;;;;678445;29;902;-79
2022/04/02 01:35:13;;;;;;;;;;;24.10;40.50;;;;;;678155;29;915;-79
2022/04/02 01:35:34;;;;;;;;;;;24.10;40.30;;;;;;678252;29;898;-79
2022/04/02 01:36:02;;;;;;;;;;;24.10;40.40;;;;;;678301;29;824;-79
2022/04/02 01:36:22;;;;;;;;;;;24.10;40.20;;;;;;678359;29;888;-79
2022/04/02 01:36:43;;;;;;;;;;;24.10;40.10;;;;;;678189;29;851;-78
2022/04/02 01:37:06;;;;;;;;;;;24.10;40.20;;;;;;674976;29;1294;-79
2022/04/02 01:37:26;;;;;;;;;;;24.10;40.10;;;;;;675580;29;852;-80
2022/04/02 01:37:47;;;;;;;;;;;24.10;40.20;;;;;;675420;29;820;-79
2022/04/02 01:38:08;;;;;;;;;;;24.00;40.00;;;;;;675399;29;887;-79
2022/04/02 01:38:29;;;;;;;;;;;24.10;40.30;;;;;;675591;29;808;-78
2022/04/02 01:38:49;;;;;;;;;;;24.10;40.10;;;;;;676136;29;956;-78
2022/04/02 01:39:10;;;;;;;;;;;24.10;40.00;;;;;;678221;29;812;-79
2022/04/02 01:39:31;;;;;;;;;;;24.10;40.30;;;;;;678204;29;939;-79
2022/04/02 01:39:51;;;;;;;;;;;24.10;40.30;;;;;;678404;29;836;-78
2022/04/02 01:40:12;;;;;;;;;;;24.00;40.10;;;;;;678222;29;797;-79
2022/04/02 01:40:32;;;;;;;;;;;24.10;40.10;;;;;;678202;29;871;-79
2022/04/02 01:40:53;;;;;;;;;;;24.10;40.20;;;;;;678287;29;943;-78
2022/04/02 01:41:14;;;;;;;;;;;24.00;40.20;;;;;;678167;29;879;-78
2022/04/02 01:41:35;;;;;;;;;;;24.10;40.00;;;;;;678212;29;911;-78
2022/04/02 01:41:55;;;;;;;;;;;24.00;40.10;;;;;;678326;29;990;-84
2022/04/02 01:42:20;;;;;;;;;;;24.10;40.00;;;;;;678158;29;1027;-80
2022/04/02 01:42:41;;;;;;;;;;;24.00;39.90;;;;;;678190;29;891;-79
2022/04/02 01:43:02;;;;;;;;;;;24.10;39.80;;;;;;678290;29;780;-79
2022/04/02 01:43:23;;;;;;;;;;;24.00;40.10;;;;;;678296;29;773;-80
2022/04/02 01:43:44;;;;;;;;;;;24.00;40.00;;;;;;678542;29;797;-79
2022/04/02 01:44:05;;;;;;;;;;;24.00;39.90;;;;;;678492;29;1956;-80
2022/04/02 01:44:25;;;;;;;;;;;24.00;39.90;;;;;;678321;29;780;-80
2022/04/02 01:44:51;;;;;;;;;;;24.00;40.10;;;;;;678230;29;844;-80
2022/04/02 01:45:12;;;;;;;;;;;24.00;39.90;;;;;;678194;29;796;-79
2022/04/02 01:45:32;;;;;;;;;;;24.00;39.90;;;;;;678234;29;880;-81
2022/04/02 01:45:56;;;;;;;;;;;24.10;40.10;;;;;;678284;29;907;-80
2022/04/02 01:46:17;;;;;;;;;;;24.00;39.90;;;;;;678139;29;847;-80
2022/04/02 01:46:37;;;;;;;;;;;24.00;39.90;;;;;;678160;29;500;-80
2022/04/02 01:46:58;;;;;;;;;;;24.00;39.90;;;;;;678339;29;895;-80
2022/04/02 01:47:20;;;;;;;;;;;24.00;39.70;;;;;;678153;29;785;-80
2022/04/02 01:47:41;;;;;;;;;;;24.00;39.80;;;;;;678170;29;809;-80
2022/04/02 01:48:01;;;;;;;;;;;24.00;40.10;;;;;;678250;29;895;-81
2022/04/02 01:48:22;;;;;;;;;;;24.00;39.90;;;;;;678277;29;875;-80
2022/04/02 01:48:43;;;;;;;;;;;24.00;39.80;;;;;;678157;29;978;-80
2022/04/02 01:49:03;;;;;;;;;;;24.00;39.70;;;;;;678164;29;824;-81
2022/04/02 01:49:24;;;;;;;;;;;24.10;41.00;;;;;;678300;29;884;-79
2022/04/02 01:49:45;;;;;;;;;;;24.00;40.70;;;;;;678234;29;761;-80
2022/04/02 01:50:07;;;;;;;;;;;24.10;39.70;;;;;;678313;29;1076;-81
2022/04/02 01:50:27;;;;;;;;;;;25.50;40.70;;;;;;678347;29;844;-83
2022/04/02 01:50:48;;;;;;;;;;;24.00;40.00;;;;;;678215;29;875;-81
2022/04/02 01:51:09;;;;;;;;;;;24.00;39.70;;;;;;678476;29;804;-81
2022/04/02 01:51:30;;;;;;;;;;;24.00;40.20;;;;;;678278;29;1026;-83
2022/04/02 01:51:51;;;;;;;;;;;24.00;40.50;;;;;;678073;29;1295;-82
2022/04/02 01:52:19;;;;;;;;;;;24.00;40.30;;;;;;678087;29;780;-81
2022/04/02 01:52:39;;;;;;;;;;;24.00;39.90;;;;;;677955;29;899;-81
2022/04/02 01:53:00;;;;;;;;;;;24.10;39.90;;;;;;677805;29;527;-84
2022/04/02 01:53:21;;;;;;;;;;;24.00;40.00;;;;;;677784;29;804;-83
2022/04/02 01:53:41;;;;;;;;;;;24.10;40.00;;;;;;678019;29;808;-86
2022/04/02 01:54:02;;;;;;;;;;;24.00;40.10;;;;;;678243;29;813;-82
2022/04/02 01:54:23;;;;;;;;;;;24.00;40.30;;;;;;678283;29;930;-83
2022/04/02 01:54:43;;;;;;;;;;;21.40;38.60;;;;;;678265;29;851;-82
2022/04/02 01:55:04;;;;;;;;;;;24.00;40.00;;;;;;678213;29;895;-81
2022/04/02 01:55:26;;;;;;;;;;;24.00;40.50;;;;;;678302;29;899;-82
2022/04/02 01:55:47;;;;;;;;;;;24.00;40.00;;;;;;675383;29;1226;-81
2022/04/02 01:56:09;;;;;;;;;;;24.00;40.20;;;;;;675524;29;864;-82
2022/04/02 01:56:29;;;;;;;;;;;24.00;40.00;;;;;;672788;29;1245;-81
2022/04/02 01:56:50;;;;;;;;;;;24.00;39.90;;;;;;672724;29;1472;-81
2022/04/02 01:57:10;;;;;;;;;;;24.10;40.20;;;;;;672831;29;856;-82
2022/04/02 01:57:31;;;;;;;;;;;24.10;40.10;;;;;;672815;29;1247;-82
2022/04/02 01:57:52;;;;;;;;;;;24.00;40.10;;;;;;672449;29;1190;-82
2022/04/02 01:58:12;;;;;;;;;;;24.00;39.90;;;;;;673111;29;872;-83
2022/04/02 01:58:33;;;;;;;;;;;24.00;40.00;;;;;;675354;29;892;-83
2022/04/02 01:58:53;;;;;;;;;;;24.00;40.00;;;;;;675505;29;875;-82
2022/04/02 01:59:14;;;;;;;;;;;24.00;39.70;;;;;;675393;29;808;-81
2022/04/02 01:59:35;;;;;;;;;;;24.00;40.60;;;;;;675574;29;954;-83
2022/04/02 01:59:55;;;;;;;;;;;24.00;40.40;;;;;;678346;29;796;-83
2022/04/02 02:00:16;;;;;;;;;;;24.00;39.80;;;;;;678240;29;847;-83
2022/04/02 02:00:37;;;;;;;;;;;24.00;39.80;;;;;;677934;29;867;-81
2022/04/02 02:00:58;;;;;;;;;;;24.00;40.30;;;;;;678308;29;955;-81
2022/04/02 02:01:18;;;;;;;;;;;24.00;39.80;;;;;;677685;29;1701;-81
2022/04/02 02:01:39;;;;;;;;;;;24.00;39.80;;;;;;678054;29;777;-83
2022/04/02 02:02:00;;;;;;;;;;;24.00;39.70;;;;;;678081;29;824;-81
2022/04/02 02:02:21;;;;;;;;;;;24.00;40.10;;;;;;678064;29;867;-83
2022/04/02 02:02:41;;;;;;;;;;;24.00;39.90;;;;;;677910;29;1436;-85
2022/04/02 02:03:02;;;;;;;;;;;24.00;39.90;;;;;;678059;29;792;-83
2022/04/02 02:03:22;;;;;;;;;;;24.00;40.00;;;;;;678494;29;839;-81
2022/04/02 02:03:44;;;;;;;;;;;24.00;39.70;;;;;;679002;29;785;-82
2022/04/02 02:04:04;;;;;;;;;;;24.00;39.80;;;;;;678849;29;1879;-82
2022/04/02 02:04:26;;;;;;;;;;;24.00;39.90;;;;;;679115;29;855;-84
2022/04/02 02:04:46;;;;;;;;;;;24.00;40.00;;;;;;675214;29;1239;-82
2022/04/02 02:05:07;;;;;;;;;;;24.00;39.80;;;;;;675351;29;843;-87
2022/04/02 02:05:27;;;;;;;;;;;24.00;40.10;;;;;;675466;29;1322;-85
2022/04/02 02:05:48;;;;;;;;;;;24.00;39.80;;;;;;675450;29;895;-84
2022/04/02 02:06:09;;;;;;;;;;;23.90;39.70;;;;;;675406;29;785;-83
2022/04/02 02:06:31;;;;;;;;;;;24.00;39.90;;;;;;675839;29;1181;-83
2022/04/02 02:06:52;;;;;;;;;;;24.00;39.90;;;;;;678111;29;813;-82
2022/04/02 02:07:12;;;;;;;;;;;24.00;39.80;;;;;;678033;29;816;-82
2022/04/02 02:07:33;;;;;;;;;;;24.00;39.60;;;;;;677964;29;887;-82
2022/04/02 02:07:54;;;;;;;;;;;24.00;39.90;;;;;;678114;29;1069;-82
2022/04/02 02:08:14;;;;;;;;;;;24.00;39.70;;;;;;678156;29;792;-80
2022/04/02 02:08:35;;;;;;;;;;;23.90;39.60;;;;;;678176;29;531;-81
2022/04/02 02:08:55;;;;;;;;;;;24.00;40.00;;;;;;675551;29;1534;-83
2022/04/02 02:09:16;;;;;;;;;;;23.90;39.70;;;;;;675447;29;781;-81